createdAt,value
2022-12-03T00:00:44.723Z,78.13
2022-12-03T00:03:11.403Z,77.81
2022-12-03T00:05:41.739Z,77.18
2022-12-03T00:08:11.312Z,77.57
2022-12-03T00:10:37.953Z,78.23
2022-12-03T00:13:04.449Z,77.98
2022-12-03T00:15:33.940Z,77.46
2022-12-03T00:18:00.467Z,77.26
2022-12-03T00:20:26.809Z,77.52
2022-12-03T00:22:53.354Z,78.02
2022-12-03T00:25:19.745Z,78.35
2022-12-03T00:27:46.126Z,78.38
2022-12-03T00:30:12.519Z,77.87
2022-12-03T00:32:38.922Z,78.25
2022-12-03T00:35:05.280Z,78.29
2022-12-03T00:37:31.769Z,78.12
2022-12-03T00:39:58.123Z,78.09
2022-12-03T00:42:24.502Z,77.92
2022-12-03T00:44:51.337Z,77.73
2022-12-03T00:47:17.950Z,77.16
2022-12-03T00:49:44.333Z,77.77
2022-12-03T00:52:10.712Z,77.08
2022-12-03T00:54:37.067Z,77.01
2022-12-03T00:57:03.882Z,77.20
2022-12-03T00:59:30.321Z,77.54
2022-12-03T01:01:59.007Z,77.21
2022-12-03T01:04:25.812Z,77.72
2022-12-03T01:06:52.178Z,77.80
2022-12-03T01:09:18.572Z,78.21
2022-12-03T01:11:44.917Z,78.54
2022-12-03T01:14:11.361Z,78.15
2022-12-03T01:16:37.800Z,77.95
2022-12-03T01:19:04.279Z,78.37
2022-12-03T01:21:30.649Z,77.99
2022-12-03T01:23:59.188Z,77.61
2022-12-03T01:26:25.682Z,77.39
2022-12-03T01:28:52.111Z,77.39
2022-12-03T01:31:18.862Z,76.97
2022-12-03T01:33:45.227Z,76.87
2022-12-03T01:36:11.911Z,76.53
2022-12-03T01:38:38.371Z,77.11
2022-12-03T01:41:10.068Z,76.69
2022-12-03T01:43:37.944Z,76.13
2022-12-03T01:46:04.386Z,76.30
2022-12-03T01:48:30.809Z,76.12
2022-12-03T01:50:57.231Z,76.89
2022-12-03T01:53:24.643Z,76.35
2022-12-03T01:55:51.078Z,76.24
2022-12-03T01:58:17.465Z,76.76
2022-12-03T02:00:43.904Z,76.78
2022-12-03T02:03:10.449Z,76.58
2022-12-03T02:05:37.154Z,76.24
2022-12-03T02:08:03.617Z,77.40
2022-12-03T02:10:30.190Z,78.62
2022-12-03T02:12:56.616Z,79.11
2022-12-03T02:15:23.034Z,79.00
2022-12-03T02:17:49.455Z,78.92
2022-12-03T02:20:16.197Z,79.09
2022-12-03T02:22:42.683Z,79.14
2022-12-03T02:25:09.020Z,79.42
2022-12-03T02:27:35.470Z,78.84
2022-12-03T02:30:01.816Z,78.58
2022-12-03T02:32:28.138Z,78.34
2022-12-03T02:34:56.715Z,78.11
2022-12-03T02:37:23.096Z,78.09
2022-12-03T02:39:49.661Z,77.69
2022-12-03T02:42:16.058Z,77.71
2022-12-03T02:44:42.609Z,77.71
2022-12-03T02:47:09.008Z,77.01
2022-12-03T02:49:35.877Z,77.96
2022-12-03T02:52:02.525Z,78.08
2022-12-03T02:54:29.060Z,77.69
2022-12-03T02:56:55.447Z,77.72
2022-12-03T02:59:22.199Z,77.64
2022-12-03T03:01:48.668Z,78.29
2022-12-03T03:04:15.080Z,78.74
2022-12-03T03:06:41.675Z,79.35
2022-12-03T03:09:08.024Z,78.65
2022-12-03T03:11:34.495Z,78.74
2022-12-03T03:14:00.837Z,78.92
2022-12-03T03:16:27.359Z,79.21
2022-12-03T03:18:53.915Z,78.86
2022-12-03T03:21:20.392Z,78.73
2022-12-03T03:23:46.791Z,78.45
2022-12-03T03:26:13.174Z,77.99
2022-12-03T03:28:40.564Z,77.48
2022-12-03T03:31:06.945Z,77.02
2022-12-03T03:33:33.289Z,76.97
2022-12-03T03:35:59.647Z,76.89
2022-12-03T03:38:26.040Z,76.91
2022-12-03T03:40:52.621Z,76.72
2022-12-03T03:43:18.966Z,76.84
2022-12-03T03:45:45.462Z,76.88
2022-12-03T03:48:12.286Z,76.90
2022-12-03T03:50:38.848Z,76.71
2022-12-03T03:53:05.280Z,76.65
2022-12-03T03:55:33.976Z,76.72
2022-12-03T03:58:00.357Z,76.73
2022-12-03T04:00:27.039Z,76.39
2022-12-03T04:02:53.449Z,76.69
2022-12-03T04:05:19.938Z,77.02
2022-12-03T04:07:46.586Z,76.75
2022-12-03T04:10:12.954Z,76.42
2022-12-03T04:12:39.342Z,76.30
2022-12-03T04:15:05.674Z,76.50
2022-12-03T04:17:32.106Z,76.40
2022-12-03T04:19:58.586Z,76.60
2022-12-03T04:22:24.982Z,76.78
2022-12-03T04:24:51.691Z,76.63
2022-12-03T04:27:18.424Z,76.84
2022-12-03T04:29:44.831Z,77.10
2022-12-03T04:32:12.225Z,76.78
2022-12-03T04:34:38.627Z,77.43
2022-12-03T04:37:04.959Z,77.64
2022-12-03T04:39:31.396Z,77.74
2022-12-03T04:41:57.744Z,77.46
2022-12-03T04:44:24.085Z,77.53
2022-12-03T04:46:50.560Z,77.78
2022-12-03T04:49:16.964Z,78.40
2022-12-03T04:51:43.303Z,78.61
2022-12-03T04:54:09.718Z,78.73
2022-12-03T04:56:36.056Z,78.74
2022-12-03T04:59:02.443Z,78.31
2022-12-03T05:01:28.898Z,78.21
2022-12-03T05:03:55.330Z,78.18
2022-12-03T05:06:21.882Z,77.79
2022-12-03T05:08:48.226Z,78.01
2022-12-03T05:11:14.774Z,78.59
2022-12-03T05:13:43.017Z,78.79
2022-12-03T05:16:09.813Z,78.91
2022-12-03T05:18:36.347Z,78.57
2022-12-03T05:21:02.739Z,78.51
2022-12-03T05:23:29.128Z,78.75
2022-12-03T05:25:55.476Z,77.95
2022-12-03T05:28:21.819Z,78.18
2022-12-03T05:30:48.256Z,77.50
2022-12-03T05:33:14.718Z,77.75
2022-12-03T05:35:42.130Z,78.03
2022-12-03T05:38:08.513Z,78.66
2022-12-03T05:40:34.871Z,78.56
2022-12-03T05:43:01.245Z,78.20
2022-12-03T05:45:27.659Z,77.29
2022-12-03T05:47:54.060Z,77.14
2022-12-03T05:50:20.440Z,77.04
2022-12-03T05:52:47.022Z,76.86
2022-12-03T05:55:13.404Z,76.73
2022-12-03T05:57:40.947Z,76.33
2022-12-03T06:00:09.769Z,75.99
2022-12-03T06:02:36.553Z,76.52
2022-12-03T06:05:03.030Z,76.52
2022-12-03T06:07:29.471Z,76.83
2022-12-03T06:09:55.825Z,76.38
2022-12-03T06:12:22.532Z,76.48
2022-12-03T06:14:48.860Z,76.06
2022-12-03T06:17:15.631Z,76.08
2022-12-03T06:19:41.974Z,75.84
2022-12-03T06:22:08.345Z,75.63
2022-12-03T06:24:34.723Z,75.87
2022-12-03T06:27:01.199Z,75.92
2022-12-03T06:29:27.639Z,75.51
2022-12-03T06:31:54.012Z,75.59
2022-12-03T06:34:20.464Z,75.76
2022-12-03T06:36:46.809Z,75.34
2022-12-03T06:39:13.317Z,75.21
2022-12-03T06:41:39.666Z,74.78
2022-12-03T06:44:06.165Z,74.51
2022-12-03T06:46:32.714Z,74.93
2022-12-03T06:48:59.094Z,74.85
2022-12-03T06:51:25.585Z,74.60
2022-12-03T06:53:51.956Z,74.83
2022-12-03T06:56:22.086Z,74.87
2022-12-03T06:58:49.290Z,74.85
2022-12-03T07:01:18.128Z,75.40
2022-12-03T07:03:44.622Z,75.70
2022-12-03T07:06:10.967Z,75.68
2022-12-03T07:08:37.304Z,75.59
2022-12-03T07:11:03.751Z,75.87
2022-12-03T07:13:30.136Z,75.13
2022-12-03T07:15:56.628Z,75.66
2022-12-03T07:18:23.053Z,75.61
2022-12-03T07:20:49.434Z,75.45
2022-12-03T07:23:15.813Z,75.01
2022-12-03T07:25:42.202Z,75.26
2022-12-03T07:28:08.593Z,75.45
2022-12-03T07:30:34.951Z,75.29
2022-12-03T07:33:02.325Z,75.33
2022-12-03T07:35:31.059Z,75.24
2022-12-03T07:37:57.519Z,75.51
2022-12-03T07:40:23.859Z,75.51
2022-12-03T07:42:50.196Z,75.79
2022-12-03T07:45:16.575Z,76.00
2022-12-03T07:47:43.068Z,76.19
2022-12-03T07:50:09.437Z,75.35
2022-12-03T07:52:35.833Z,75.84
2022-12-03T07:55:02.643Z,75.86
2022-12-03T07:57:29.018Z,75.80
2022-12-03T07:59:55.369Z,75.80
2022-12-03T08:02:22.100Z,75.75
2022-12-03T08:04:48.584Z,75.25
2022-12-03T08:07:14.946Z,75.31
2022-12-03T08:09:41.289Z,75.10
2022-12-03T08:12:07.759Z,74.95
2022-12-03T08:14:34.240Z,74.71
2022-12-03T08:17:00.609Z,75.00
2022-12-03T08:19:27.057Z,75.13
2022-12-03T08:22:01.050Z,74.85
2022-12-03T08:24:27.880Z,75.17
2022-12-03T08:26:55.259Z,75.04
2022-12-03T08:29:21.697Z,74.52
2022-12-03T08:31:48.187Z,74.84
2022-12-03T08:34:14.613Z,74.97
2022-12-03T08:36:41.392Z,75.15
2022-12-03T08:39:07.777Z,75.57
2022-12-03T08:41:34.216Z,75.19
2022-12-03T08:44:00.674Z,75.14
2022-12-03T08:46:27.228Z,74.89
2022-12-03T08:48:55.212Z,75.10
2022-12-03T08:51:29.350Z,74.57
2022-12-03T08:54:01.240Z,74.37
2022-12-03T08:56:28.379Z,75.40
2022-12-03T08:58:54.818Z,75.56
2022-12-03T09:01:21.274Z,75.65
2022-12-03T09:03:47.803Z,75.26
2022-12-03T09:06:14.226Z,75.06
2022-12-03T09:08:40.983Z,74.47
2022-12-03T09:11:07.326Z,75.13
2022-12-03T09:13:35.775Z,76.71
2022-12-03T09:16:02.210Z,76.24
2022-12-03T09:18:28.966Z,76.50
2022-12-03T09:20:55.333Z,76.54
2022-12-03T09:23:21.718Z,76.25
2022-12-03T09:25:48.216Z,75.72
2022-12-03T09:28:14.618Z,75.06
2022-12-03T09:30:40.958Z,74.49
2022-12-03T09:33:07.300Z,75.15
2022-12-03T09:35:33.636Z,74.73
2022-12-03T09:38:00.128Z,75.04
2022-12-03T09:40:26.747Z,74.57
2022-12-03T09:42:53.281Z,74.28
2022-12-03T09:45:19.763Z,73.90
2022-12-03T09:47:46.188Z,73.74
2022-12-03T09:50:15.654Z,73.45
2022-12-03T09:52:43.020Z,73.32
2022-12-03T09:55:09.394Z,73.03
2022-12-03T09:57:36.153Z,72.89
2022-12-03T10:00:02.658Z,73.60
2022-12-03T10:02:29.311Z,74.04
2022-12-03T10:04:55.979Z,73.58
2022-12-03T10:07:24.921Z,73.75
2022-12-03T10:09:51.696Z,74.58
2022-12-03T10:12:18.220Z,74.27
2022-12-03T10:14:44.812Z,74.01
2022-12-03T10:17:12.266Z,74.66
2022-12-03T10:19:39.212Z,74.15
2022-12-03T10:22:05.554Z,74.35
2022-12-03T10:24:33.014Z,74.47
2022-12-03T10:26:59.488Z,74.26
2022-12-03T10:29:31.628Z,74.27
2022-12-03T10:31:59.940Z,74.05
2022-12-03T10:34:28.021Z,74.13
2022-12-03T10:36:54.578Z,73.99
2022-12-03T10:39:20.925Z,73.76
2022-12-03T10:41:47.331Z,73.06
2022-12-03T10:44:13.777Z,72.68
2022-12-03T10:46:40.714Z,72.96
2022-12-03T10:49:07.453Z,72.87
2022-12-03T10:51:33.796Z,72.80
2022-12-03T10:54:00.346Z,72.05
2022-12-03T10:56:26.857Z,71.83
2022-12-03T10:58:54.848Z,72.32
2022-12-03T11:01:21.563Z,71.49
2022-12-03T11:03:48.090Z,71.42
2022-12-03T11:06:14.655Z,71.78
2022-12-03T11:08:41.201Z,72.95
2022-12-03T11:11:07.539Z,73.48
2022-12-03T11:13:34.389Z,72.73
2022-12-03T11:16:03.213Z,72.91
2022-12-03T11:18:32.605Z,72.69
2022-12-03T11:20:59.029Z,71.70
2022-12-03T11:23:25.628Z,72.48
2022-12-03T11:25:52.092Z,73.55
2022-12-03T11:28:18.496Z,73.00
2022-12-03T11:30:44.919Z,72.15
2022-12-03T11:33:11.327Z,71.59
2022-12-03T11:35:37.755Z,71.50
2022-12-03T11:38:04.226Z,71.33
2022-12-03T11:40:36.132Z,70.97
2022-12-03T11:43:05.644Z,70.37
2022-12-03T11:45:31.998Z,71.40
2022-12-03T11:47:58.424Z,71.69
2022-12-03T11:50:24.786Z,71.21
2022-12-03T11:52:51.331Z,71.80
2022-12-03T11:55:17.788Z,71.55
2022-12-03T11:57:44.156Z,71.97
2022-12-03T12:00:10.897Z,72.01
2022-12-03T12:02:38.418Z,71.46
2022-12-03T12:05:05.058Z,71.86
2022-12-03T12:07:31.875Z,71.27
2022-12-03T12:09:58.570Z,71.76
2022-12-03T12:12:24.990Z,73.37
2022-12-03T12:14:51.355Z,73.45
2022-12-03T12:17:17.818Z,73.54
2022-12-03T12:19:45.074Z,73.16
2022-12-03T12:22:12.113Z,72.48
2022-12-03T12:24:38.541Z,72.84
2022-12-03T12:27:04.945Z,72.35
2022-12-03T12:29:31.367Z,72.35
2022-12-03T12:31:57.776Z,71.94
2022-12-03T12:34:24.248Z,72.51
2022-12-03T12:36:51.085Z,72.48
2022-12-03T12:39:17.587Z,72.44
2022-12-03T12:41:45.034Z,72.49
2022-12-03T12:44:13.595Z,71.74
2022-12-03T12:46:47.812Z,72.86
2022-12-03T12:49:15.462Z,72.95
2022-12-03T12:51:41.875Z,72.90
2022-12-03T12:54:08.540Z,72.43
2022-12-03T12:56:35.027Z,72.56
2022-12-03T12:59:01.660Z,72.91
2022-12-03T13:01:28.364Z,72.27
2022-12-03T13:03:54.852Z,72.60
2022-12-03T13:06:21.256Z,72.03
2022-12-03T13:08:47.767Z,72.41
2022-12-03T13:11:14.675Z,71.64
2022-12-03T13:13:44.071Z,71.83
2022-12-03T13:16:11.963Z,72.19
2022-12-03T13:18:38.361Z,72.39
2022-12-03T13:21:04.703Z,72.61
2022-12-03T13:23:31.309Z,72.68
2022-12-03T13:26:02.268Z,72.18
2022-12-03T13:28:32.965Z,72.54
2022-12-03T13:30:59.559Z,72.78
2022-12-03T13:33:25.960Z,72.31
2022-12-03T13:35:52.397Z,72.60
2022-12-03T13:38:18.856Z,72.68
2022-12-03T13:40:45.233Z,72.19
2022-12-03T13:43:11.601Z,72.25
2022-12-03T13:45:38.043Z,71.81
2022-12-03T13:48:04.468Z,71.70
2022-12-03T13:50:31.841Z,71.91
2022-12-03T13:52:58.231Z,71.66
2022-12-03T13:55:24.635Z,72.30
2022-12-03T13:57:51.146Z,72.82
2022-12-03T14:00:17.498Z,74.08
2022-12-03T14:02:43.888Z,74.08
2022-12-03T14:05:10.407Z,73.84
2022-12-03T14:07:36.830Z,73.98
2022-12-03T14:10:03.292Z,73.56
2022-12-03T14:12:29.649Z,73.16
2022-12-03T14:14:56.038Z,72.93
2022-12-03T14:17:22.394Z,72.48
2022-12-03T14:19:48.988Z,72.62
2022-12-03T14:22:15.340Z,73.01
2022-12-03T14:24:41.683Z,73.16
2022-12-03T14:27:08.068Z,73.06
2022-12-03T14:29:34.416Z,73.03
2022-12-03T14:32:00.975Z,72.93
2022-12-03T14:34:27.354Z,72.39
2022-12-03T14:36:53.707Z,72.85
2022-12-03T14:39:20.543Z,73.43
2022-12-03T14:41:48.918Z,72.75
2022-12-03T14:44:15.307Z,72.71
2022-12-03T14:46:41.712Z,73.32
2022-12-03T14:49:08.345Z,73.24
2022-12-03T14:51:34.751Z,73.13
2022-12-03T14:54:01.093Z,72.53
2022-12-03T14:56:27.437Z,72.80
2022-12-03T14:58:53.820Z,71.96
2022-12-03T15:01:20.199Z,71.90
2022-12-03T15:03:48.694Z,72.04
2022-12-03T15:06:15.046Z,72.40
2022-12-03T15:08:41.383Z,72.49
2022-12-03T15:11:07.942Z,72.88
2022-12-03T15:13:34.332Z,72.89
2022-12-03T15:16:00.723Z,72.40
2022-12-03T15:18:29.681Z,72.36
2022-12-03T15:20:56.205Z,72.35
2022-12-03T15:23:22.733Z,72.45
2022-12-03T15:25:49.277Z,72.33
2022-12-03T15:28:16.659Z,72.62
2022-12-03T15:30:43.042Z,72.39
2022-12-03T15:33:09.681Z,72.76
2022-12-03T15:35:37.570Z,72.58
2022-12-03T15:38:03.937Z,72.98
2022-12-03T15:40:30.424Z,73.33
2022-12-03T15:42:56.774Z,73.31
2022-12-03T15:45:23.169Z,73.20
2022-12-03T15:47:49.518Z,73.81
2022-12-03T15:50:15.883Z,73.44
2022-12-03T15:52:42.266Z,73.46
2022-12-03T15:55:08.955Z,73.75
2022-12-03T15:57:35.297Z,73.55
2022-12-03T16:00:01.645Z,74.30
2022-12-03T16:02:28.077Z,74.31
2022-12-03T16:04:54.523Z,74.41
2022-12-03T16:07:21.181Z,74.44
2022-12-03T16:09:47.984Z,74.38
2022-12-03T16:12:14.433Z,74.55
2022-12-03T16:14:41.915Z,74.20
2022-12-03T16:17:08.508Z,74.76
2022-12-03T16:19:34.957Z,74.76
2022-12-03T16:22:01.751Z,74.62
2022-12-03T16:24:28.578Z,74.84
2022-12-03T16:26:55.012Z,75.52
2022-12-03T16:29:21.396Z,75.25
2022-12-03T16:31:47.761Z,75.49
2022-12-03T16:34:14.417Z,75.71
2022-12-03T16:36:40.915Z,74.86
2022-12-03T16:39:07.287Z,75.33
2022-12-03T16:41:33.764Z,75.27
2022-12-03T16:44:00.374Z,75.37
2022-12-03T16:46:26.963Z,74.70
2022-12-03T16:48:53.386Z,74.81
2022-12-03T16:51:19.893Z,75.80
2022-12-03T16:53:47.421Z,75.95
2022-12-03T16:56:13.771Z,75.75
2022-12-03T16:58:40.252Z,75.53
2022-12-03T17:01:06.869Z,75.93
2022-12-03T17:03:34.232Z,75.98
2022-12-03T17:06:00.694Z,75.90
2022-12-03T17:08:27.364Z,75.39
2022-12-03T17:10:53.775Z,75.79
2022-12-03T17:13:21.463Z,75.69
2022-12-03T17:15:48.051Z,75.54
2022-12-03T17:18:15.056Z,75.02
2022-12-03T17:20:41.610Z,75.40
2022-12-03T17:23:10.946Z,75.08
2022-12-03T17:25:38.097Z,74.85
2022-12-03T17:28:04.513Z,74.81
2022-12-03T17:30:30.845Z,74.59
2022-12-03T17:32:57.217Z,74.81
2022-12-03T17:35:23.638Z,74.75
2022-12-03T17:37:50.048Z,74.91
2022-12-03T17:40:17.217Z,74.79
2022-12-03T17:42:43.855Z,75.36
2022-12-03T17:45:10.233Z,75.11
2022-12-03T17:47:36.615Z,75.09
2022-12-03T17:50:03.171Z,75.12
2022-12-03T17:52:29.611Z,74.71
2022-12-03T17:55:10.480Z,74.74
2022-12-03T17:57:39.448Z,75.08
2022-12-03T18:00:05.926Z,74.97
2022-12-03T18:02:32.415Z,74.95
2022-12-03T18:04:59.120Z,74.91
2022-12-03T18:07:25.627Z,74.59
2022-12-03T18:09:52.296Z,74.90
2022-12-03T18:12:21.394Z,74.94
2022-12-03T18:14:47.795Z,74.97
2022-12-03T18:17:14.505Z,74.92
2022-12-03T18:19:40.961Z,75.04
2022-12-03T18:22:07.365Z,75.64
2022-12-03T18:24:33.702Z,75.93
2022-12-03T18:27:00.169Z,76.02
2022-12-03T18:29:26.737Z,75.95
2022-12-03T18:31:53.182Z,76.14
2022-12-03T18:34:19.697Z,76.01
2022-12-03T18:36:46.105Z,75.79
2022-12-03T18:39:12.488Z,76.21
2022-12-03T18:41:38.856Z,75.94
2022-12-03T18:44:05.396Z,76.28
2022-12-03T18:46:52.421Z,76.35
2022-12-03T18:49:18.372Z,76.56
2022-12-03T18:51:45.811Z,76.58
2022-12-03T18:54:12.588Z,76.72
2022-12-03T18:56:38.977Z,76.68
2022-12-03T18:59:05.683Z,77.44
2022-12-03T19:01:32.120Z,76.96
2022-12-03T19:03:58.698Z,77.12
2022-12-03T19:06:25.604Z,77.17
2022-12-03T19:08:52.210Z,76.98
2022-12-03T19:11:19.197Z,76.82
2022-12-03T19:13:45.849Z,76.55
2022-12-03T19:16:12.231Z,76.29
2022-12-03T19:18:38.918Z,76.48
2022-12-03T19:21:05.319Z,76.64
2022-12-03T19:23:31.675Z,76.51
2022-12-03T19:25:59.338Z,76.27
2022-12-03T19:28:25.822Z,76.35
2022-12-03T19:30:54.483Z,76.17
2022-12-03T19:33:26.743Z,76.28
2022-12-03T19:35:54.731Z,76.07
2022-12-03T19:38:21.407Z,76.04
2022-12-03T19:40:47.860Z,75.84
2022-12-03T19:43:15.242Z,76.08
2022-12-03T19:45:41.622Z,76.14
2022-12-03T19:48:08.434Z,76.63
2022-12-03T19:50:35.995Z,76.62
2022-12-03T20:03:45.249Z,76.90
2022-12-03T20:06:11.835Z,76.84
2022-12-03T20:08:38.291Z,76.65
2022-12-03T20:11:04.652Z,76.20
2022-12-03T20:13:36.339Z,76.32
2022-12-03T20:16:06.064Z,76.38
2022-12-03T20:18:32.680Z,76.82
2022-12-03T20:20:59.067Z,76.58
2022-12-03T20:23:25.458Z,76.60
2022-12-03T20:25:51.876Z,76.78
2022-12-03T20:28:18.349Z,76.69
2022-12-03T20:30:44.704Z,76.72
2022-12-03T20:33:13.702Z,76.44
2022-12-03T20:35:40.066Z,76.47
2022-12-03T20:38:06.561Z,76.49
2022-12-03T20:40:32.937Z,77.02
2022-12-03T20:43:00.668Z,76.81
2022-12-03T20:45:27.108Z,77.43
2022-12-03T20:47:53.608Z,77.27
2022-12-03T20:50:19.999Z,77.48
2022-12-03T20:53:03.569Z,77.17
2022-12-03T20:55:32.923Z,77.12
2022-12-03T20:57:59.296Z,77.22
2022-12-03T21:00:25.660Z,77.02
2022-12-03T21:02:52.478Z,76.95
2022-12-03T21:05:18.867Z,76.99
2022-12-03T21:07:45.593Z,77.05
2022-12-03T21:10:12.053Z,76.81
2022-12-03T21:12:38.532Z,77.05
2022-12-03T21:15:07.347Z,77.20
2022-12-03T21:17:33.867Z,76.67
2022-12-03T21:20:01.238Z,76.76
2022-12-03T21:22:27.674Z,76.61
2022-12-03T21:24:54.033Z,76.54
2022-12-03T21:27:21.962Z,76.60
2022-12-03T21:29:50.990Z,76.28
2022-12-03T21:32:17.633Z,76.12
2022-12-03T21:34:44.003Z,76.58
2022-12-03T21:37:10.388Z,76.60
2022-12-03T21:39:36.843Z,76.48
2022-12-03T21:42:19.222Z,76.30
2022-12-03T21:44:49.777Z,75.78
2022-12-03T21:47:16.192Z,75.39
2022-12-03T21:49:42.573Z,75.35
2022-12-03T21:52:09.067Z,75.18
2022-12-03T21:54:35.445Z,75.44
2022-12-03T21:57:01.827Z,74.61
2022-12-03T21:59:28.255Z,74.81
2022-12-03T22:01:54.643Z,75.50
2022-12-03T22:04:21.051Z,74.64
2022-12-03T22:06:47.503Z,74.95
2022-12-03T22:09:14.906Z,74.51
2022-12-03T22:11:41.389Z,74.69
2022-12-03T22:14:07.882Z,74.29
2022-12-03T22:16:34.431Z,74.26
2022-12-03T22:19:00.854Z,74.45
2022-12-03T22:21:27.229Z,74.85
2022-12-03T22:23:53.686Z,74.90
2022-12-03T22:26:20.047Z,74.95
2022-12-03T22:28:46.426Z,74.99
2022-12-03T22:31:12.890Z,74.64
2022-12-03T22:33:39.381Z,74.57
2022-12-03T22:36:05.807Z,74.09
2022-12-03T22:38:32.183Z,74.58
2022-12-03T22:40:58.568Z,74.36
2022-12-03T22:43:25.052Z,74.66
2022-12-03T22:45:51.473Z,74.65
2022-12-03T22:48:17.864Z,74.41
2022-12-03T22:50:44.206Z,74.49
2022-12-03T22:53:10.657Z,74.21
2022-12-03T22:55:37.416Z,73.72
2022-12-03T22:58:03.877Z,73.89
2022-12-03T23:00:30.270Z,73.68
2022-12-03T23:02:56.777Z,73.19
2022-12-03T23:05:23.402Z,73.59
2022-12-03T23:07:49.802Z,73.74
2022-12-03T23:10:16.244Z,73.81
2022-12-03T23:12:42.731Z,74.02
2022-12-03T23:15:09.133Z,73.81
2022-12-03T23:17:35.498Z,74.08
2022-12-03T23:20:01.854Z,73.77
2022-12-03T23:22:28.230Z,73.60
2022-12-03T23:24:54.615Z,74.21
2022-12-03T23:27:21.007Z,74.91
2022-12-03T23:29:47.801Z,75.35
2022-12-03T23:32:14.155Z,75.36
2022-12-03T23:34:40.557Z,75.33
2022-12-03T23:37:07.138Z,75.17
2022-12-03T23:39:33.916Z,74.33
2022-12-03T23:42:00.436Z,74.37
2022-12-03T23:44:26.822Z,74.42
2022-12-03T23:46:53.266Z,74.21
2022-12-03T23:49:19.719Z,74.57
2022-12-03T23:51:46.126Z,74.93
2022-12-03T23:54:12.512Z,75.31
2022-12-03T23:56:38.861Z,75.28
2022-12-03T23:59:05.305Z,75.14
